createdAt,value
2019-03-16T00:00:26.987Z,18.94
2019-03-16T00:01:07.574Z,18.99
2019-03-16T00:01:56.847Z,19
2019-03-16T00:02:28.754Z,18.92
2019-03-16T00:03:09.395Z,18.92
2019-03-16T00:03:49.987Z,18.99
2019-03-16T00:04:30.598Z,18.98
2019-03-16T00:05:11.193Z,19.06
2019-03-16T00:05:51.813Z,18.99
2019-03-16T00:06:32.398Z,18.92
2019-03-16T00:07:12.994Z,18.99
2019-03-16T00:07:53.598Z,19.02
2019-03-16T00:08:34.257Z,18.91
2019-03-16T00:09:14.863Z,18.91
2019-03-16T00:09:55.579Z,19
2019-03-16T00:10:36.120Z,18.99
2019-03-16T00:11:16.770Z,18.99
2019-03-16T00:11:57.480Z,19.02
2019-03-16T00:12:37.903Z,19.02
2019-03-16T00:13:18.567Z,18.98
2019-03-16T00:13:59.174Z,19
2019-03-16T00:14:39.791Z,18.91
2019-03-16T00:15:20.387Z,18.98
2019-03-16T00:16:00.993Z,18.94
2019-03-16T00:16:41.570Z,18.95
2019-03-16T00:17:23.688Z,18.92
2019-03-16T00:18:02.847Z,18.94
2019-03-16T00:18:43.475Z,18.99
2019-03-16T00:19:24.082Z,18.91
2019-03-16T00:20:04.676Z,18.91
2019-03-16T00:20:45.270Z,18.95
2019-03-16T00:21:25.861Z,18.92
2019-03-16T00:22:06.449Z,18.95
2019-03-16T00:22:47.069Z,18.94
2019-03-16T00:23:27.658Z,19
2019-03-16T00:24:08.257Z,18.98
2019-03-16T00:24:48.845Z,18.91
2019-03-16T00:25:29.438Z,19.04
2019-03-16T00:26:10.039Z,18.95
2019-03-16T00:26:50.659Z,18.95
2019-03-16T00:27:31.313Z,19
2019-03-16T00:28:11.856Z,18.92
2019-03-16T00:28:52.466Z,19
2019-03-16T00:29:33.071Z,19
2019-03-16T00:30:13.679Z,18.95
2019-03-16T00:30:54.280Z,18.92
2019-03-16T00:31:34.866Z,19.02
2019-03-16T00:32:15.481Z,18.9
2019-03-16T00:32:56.092Z,18.94
2019-03-16T00:33:36.692Z,18.9
2019-03-16T00:34:17.287Z,18.91
2019-03-16T00:34:57.932Z,18.94
2019-03-16T00:35:38.599Z,18.92
2019-03-16T00:36:19.240Z,18.95
2019-03-16T00:36:59.956Z,18.92
2019-03-16T00:37:40.564Z,18.98
2019-03-16T00:38:23.407Z,18.91
2019-03-16T00:39:01.764Z,18.9
2019-03-16T00:39:42.363Z,18.98
2019-03-16T00:40:22.954Z,18.9
2019-03-16T00:41:03.543Z,18.91
2019-03-16T00:41:44.219Z,18.92
2019-03-16T00:42:24.835Z,19
2019-03-16T00:43:05.434Z,18.91
2019-03-16T00:43:46.048Z,18.94
2019-03-16T00:44:26.676Z,18.92
2019-03-16T00:45:07.276Z,18.91
2019-03-16T00:45:47.864Z,18.9
2019-03-16T00:46:28.465Z,18.92
2019-03-16T00:47:09.082Z,18.94
2019-03-16T00:47:49.674Z,18.9
2019-03-16T00:48:30.268Z,18.95
2019-03-16T00:49:10.870Z,19.04
2019-03-16T00:49:51.467Z,18.94
2019-03-16T00:50:32.072Z,18.92
2019-03-16T00:51:12.668Z,18.95
2019-03-16T00:51:53.266Z,18.92
2019-03-16T00:52:33.858Z,18.92
2019-03-16T00:53:14.444Z,18.91
2019-03-16T00:53:55.042Z,18.94
2019-03-16T00:54:35.648Z,18.91
2019-03-16T00:55:16.244Z,19
2019-03-16T00:55:56.834Z,18.94
2019-03-16T00:56:37.448Z,18.92
2019-03-16T00:57:18.048Z,18.94
2019-03-16T00:57:58.662Z,18.99
2019-03-16T00:58:39.252Z,18.92
2019-03-16T00:59:19.856Z,18.94
2019-03-16T01:00:00.472Z,18.88
2019-03-16T01:00:41.065Z,18.88
2019-03-16T01:01:21.650Z,18.95
2019-03-16T01:02:02.243Z,18.95
2019-03-16T01:02:42.834Z,18.92
2019-03-16T01:03:23.472Z,18.91
2019-03-16T01:04:04.114Z,18.91
2019-03-16T01:04:44.708Z,18.91
2019-03-16T01:05:25.306Z,18.98
2019-03-16T01:06:05.900Z,18.88
2019-03-16T01:06:46.492Z,18.92
2019-03-16T01:07:27.104Z,18.92
2019-03-16T01:08:07.702Z,18.92
2019-03-16T01:08:48.306Z,18.91
2019-03-16T01:09:28.918Z,18.91
2019-03-16T01:10:09.508Z,18.91
2019-03-16T01:10:50.126Z,18.91
2019-03-16T01:11:30.712Z,18.92
2019-03-16T01:12:11.311Z,18.94
2019-03-16T01:12:51.916Z,18.91
2019-03-16T01:13:32.539Z,18.9
2019-03-16T01:14:13.128Z,18.92
2019-03-16T01:14:53.736Z,18.92
2019-03-16T01:15:34.330Z,18.92
2019-03-16T01:16:14.920Z,18.9
2019-03-16T01:16:55.526Z,18.91
2019-03-16T01:17:36.144Z,18.94
2019-03-16T01:18:16.725Z,18.9
2019-03-16T01:18:57.307Z,18.95
2019-03-16T01:19:37.887Z,18.92
2019-03-16T01:20:18.476Z,18.92
2019-03-16T01:20:59.058Z,18.91
2019-03-16T01:21:39.644Z,18.92
2019-03-16T01:22:20.238Z,18.87
2019-03-16T01:23:00.844Z,18.87
2019-03-16T01:23:41.456Z,18.9
2019-03-16T01:24:22.056Z,18.84
2019-03-16T01:25:02.651Z,18.94
2019-03-16T01:25:43.249Z,18.9
2019-03-16T01:26:23.836Z,18.91
2019-03-16T01:27:04.426Z,18.9
2019-03-16T01:27:45.023Z,18.9
2019-03-16T01:28:25.620Z,18.92
2019-03-16T01:29:06.216Z,18.9
2019-03-16T01:29:46.807Z,18.9
2019-03-16T01:30:27.411Z,18.87
2019-03-16T01:31:08.010Z,18.9
2019-03-16T01:31:48.616Z,18.91
2019-03-16T01:32:39.879Z,18.91
2019-03-16T01:33:09.821Z,18.9
2019-03-16T01:33:50.440Z,18.91
2019-03-16T01:34:31.022Z,18.9
2019-03-16T01:35:11.622Z,18.9
2019-03-16T01:35:52.220Z,18.9
2019-03-16T01:36:32.816Z,18.9
2019-03-16T01:37:13.418Z,18.9
2019-03-16T01:37:54.022Z,18.9
2019-03-16T01:38:34.621Z,18.9
2019-03-16T01:39:15.212Z,18.9
2019-03-16T01:39:55.792Z,18.87
2019-03-16T01:40:36.407Z,18.9
2019-03-16T01:41:16.995Z,18.92
2019-03-16T01:41:57.580Z,18.91
2019-03-16T01:42:38.165Z,18.9
2019-03-16T01:43:18.804Z,18.9
2019-03-16T01:43:59.402Z,18.91
2019-03-16T01:44:39.989Z,18.92
2019-03-16T01:45:20.587Z,18.92
2019-03-16T01:46:01.170Z,18.91
2019-03-16T01:46:41.774Z,18.9
2019-03-16T01:47:22.360Z,18.88
2019-03-16T01:48:02.960Z,18.87
2019-03-16T01:48:43.567Z,18.9
2019-03-16T01:49:24.171Z,18.88
2019-03-16T01:50:04.760Z,18.94
2019-03-16T01:50:45.410Z,18.91
2019-03-16T01:51:25.994Z,18.9
2019-03-16T01:52:06.590Z,18.9
2019-03-16T01:52:47.186Z,18.85
2019-03-16T01:53:27.788Z,18.94
2019-03-16T01:54:08.378Z,18.9
2019-03-16T01:54:48.964Z,18.9
2019-03-16T01:55:29.556Z,18.9
2019-03-16T01:56:10.144Z,18.9
2019-03-16T01:56:50.738Z,18.92
2019-03-16T01:57:31.378Z,18.87
2019-03-16T01:58:11.964Z,18.88
2019-03-16T01:58:52.562Z,18.87
2019-03-16T01:59:33.168Z,18.91
2019-03-16T02:00:13.770Z,18.9
2019-03-16T02:00:54.357Z,18.82
2019-03-16T02:01:34.954Z,18.81
2019-03-16T02:02:15.600Z,18.82
2019-03-16T02:02:56.196Z,18.91
2019-03-16T02:03:36.789Z,18.88
2019-03-16T02:04:17.394Z,18.85
2019-03-16T02:04:57.988Z,18.92
2019-03-16T02:05:38.611Z,18.91
2019-03-16T02:06:19.215Z,18.87
2019-03-16T02:06:59.806Z,18.82
2019-03-16T02:07:40.398Z,18.87
2019-03-16T02:08:21.018Z,18.88
2019-03-16T02:09:01.622Z,18.88
2019-03-16T02:09:42.210Z,18.84
2019-03-16T02:10:22.802Z,18.84
2019-03-16T02:11:03.384Z,18.92
2019-03-16T02:11:43.980Z,18.87
2019-03-16T02:12:24.564Z,18.88
2019-03-16T02:13:05.152Z,18.78
2019-03-16T02:13:45.740Z,18.8
2019-03-16T02:14:26.332Z,18.9
2019-03-16T02:15:06.947Z,18.9
2019-03-16T02:15:47.538Z,18.88
2019-03-16T02:16:28.134Z,18.91
2019-03-16T02:17:08.754Z,18.84
2019-03-16T02:17:49.374Z,18.94
2019-03-16T02:18:29.986Z,18.88
2019-03-16T02:19:10.608Z,18.88
2019-03-16T02:19:51.206Z,18.92
2019-03-16T02:20:31.790Z,18.87
2019-03-16T02:21:12.396Z,18.9
2019-03-16T02:21:53.093Z,18.81
2019-03-16T02:22:33.574Z,18.91
2019-03-16T02:23:14.163Z,18.94
2019-03-16T02:23:54.762Z,18.82
2019-03-16T02:24:35.362Z,18.78
2019-03-16T02:25:15.952Z,18.8
2019-03-16T02:25:56.550Z,18.87
2019-03-16T02:26:37.156Z,18.78
2019-03-16T02:27:17.756Z,18.87
2019-03-16T02:27:58.334Z,18.8
2019-03-16T02:28:38.973Z,18.92
2019-03-16T02:29:19.586Z,18.81
2019-03-16T02:30:00.517Z,18.92
2019-03-16T02:30:40.814Z,18.82
2019-03-16T02:31:21.412Z,18.84
2019-03-16T02:32:02.007Z,18.76
2019-03-16T02:32:42.616Z,18.9
2019-03-16T02:33:23.203Z,18.78
2019-03-16T02:34:03.811Z,18.8
2019-03-16T02:34:44.411Z,18.88
2019-03-16T02:35:25.005Z,18.85
2019-03-16T02:36:05.590Z,18.84
2019-03-16T02:36:46.191Z,18.9
2019-03-16T02:37:26.776Z,18.85
2019-03-16T02:38:07.372Z,18.85
2019-03-16T02:38:47.966Z,18.78
2019-03-16T02:39:28.568Z,18.91
2019-03-16T02:40:09.173Z,18.76
2019-03-16T02:40:49.762Z,18.78
2019-03-16T02:41:30.340Z,18.78
2019-03-16T02:42:10.931Z,18.82
2019-03-16T02:42:51.600Z,18.84
2019-03-16T02:43:32.195Z,18.82
2019-03-16T02:44:12.805Z,18.87
2019-03-16T02:44:53.398Z,18.82
2019-03-16T02:45:33.982Z,18.75
2019-03-16T02:46:14.586Z,18.81
2019-03-16T02:46:55.165Z,18.81
2019-03-16T02:47:35.762Z,18.84
2019-03-16T02:48:16.363Z,18.85
2019-03-16T02:48:56.944Z,18.81
2019-03-16T02:49:37.550Z,18.76
2019-03-16T02:50:18.143Z,18.76
2019-03-16T02:50:58.734Z,18.84
2019-03-16T02:51:39.324Z,18.76
2019-03-16T02:52:19.938Z,18.81
2019-03-16T02:53:00.570Z,18.81
2019-03-16T02:53:41.168Z,18.73
2019-03-16T02:54:21.767Z,18.87
2019-03-16T02:55:02.366Z,18.76
2019-03-16T02:55:43.030Z,18.76
2019-03-16T02:56:23.633Z,18.75
2019-03-16T02:57:04.212Z,18.84
2019-03-16T02:57:44.795Z,18.85
2019-03-16T02:58:25.407Z,18.78
2019-03-16T02:59:06.119Z,18.81
2019-03-16T02:59:46.602Z,18.76
2019-03-16T03:00:27.190Z,18.87
2019-03-16T03:01:07.797Z,18.82
2019-03-16T03:01:48.391Z,18.81
2019-03-16T03:02:28.980Z,18.85
2019-03-16T03:03:09.576Z,18.78
2019-03-16T03:03:50.174Z,18.87
2019-03-16T03:04:30.775Z,18.76
2019-03-16T03:05:11.395Z,18.85
2019-03-16T03:05:51.980Z,18.81
2019-03-16T03:06:32.578Z,18.85
2019-03-16T03:07:13.168Z,18.88
2019-03-16T03:07:53.766Z,18.78
2019-03-16T03:08:34.373Z,18.78
2019-03-16T03:09:14.988Z,18.76
2019-03-16T03:09:59.285Z,18.81
2019-03-16T03:10:39.873Z,18.82
2019-03-16T03:11:20.464Z,18.85
2019-03-16T03:12:01.052Z,18.82
2019-03-16T03:12:41.634Z,18.84
2019-03-16T03:13:22.238Z,18.82
2019-03-16T03:14:02.852Z,18.82
2019-03-16T03:14:43.446Z,18.85
2019-03-16T03:15:24.039Z,18.82
2019-03-16T03:16:04.626Z,18.87
2019-03-16T03:16:45.212Z,18.82
2019-03-16T03:17:25.808Z,18.8
2019-03-16T03:18:06.516Z,18.81
2019-03-16T03:18:49.483Z,18.82
2019-03-16T03:19:27.707Z,18.78
2019-03-16T03:20:08.296Z,18.84
2019-03-16T03:20:48.871Z,18.84
2019-03-16T03:21:29.463Z,18.85
2019-03-16T03:22:10.058Z,18.82
2019-03-16T03:22:50.643Z,18.85
2019-03-16T03:23:31.245Z,18.82
2019-03-16T03:24:11.854Z,18.85
2019-03-16T03:24:52.446Z,18.8
2019-03-16T03:25:33.048Z,18.8
2019-03-16T03:26:13.649Z,18.84
2019-03-16T03:26:54.233Z,18.78
2019-03-16T03:27:34.840Z,18.85
2019-03-16T03:28:15.464Z,18.8
2019-03-16T03:28:56.065Z,18.75
2019-03-16T03:29:36.668Z,18.82
2019-03-16T03:30:17.255Z,18.88
2019-03-16T03:30:57.865Z,18.88
2019-03-16T03:31:38.451Z,18.73
2019-03-16T03:32:19.069Z,18.82
2019-03-16T03:32:59.675Z,18.78
2019-03-16T03:33:58.406Z,18.75
2019-03-16T03:34:20.863Z,18.85
2019-03-16T03:35:01.528Z,18.88
2019-03-16T03:35:42.048Z,18.8
2019-03-16T03:36:22.644Z,18.81
2019-03-16T03:37:03.318Z,18.81
2019-03-16T03:37:43.829Z,18.82
2019-03-16T03:38:24.411Z,18.82
2019-03-16T03:39:05.006Z,18.85
2019-03-16T03:39:45.605Z,18.82
2019-03-16T03:40:26.195Z,18.85
2019-03-16T03:41:06.844Z,18.78
2019-03-16T03:41:47.433Z,18.8
2019-03-16T03:42:28.038Z,18.81
2019-03-16T03:43:08.634Z,18.82
2019-03-16T03:43:49.227Z,18.81
2019-03-16T03:44:29.811Z,18.78
2019-03-16T03:45:10.430Z,18.82
2019-03-16T03:45:51.022Z,18.84
2019-03-16T03:46:32.437Z,18.85
2019-03-16T03:47:12.229Z,18.84
2019-03-16T03:47:52.827Z,18.84
2019-03-16T03:48:33.415Z,18.85
2019-03-16T03:49:14.005Z,18.82
2019-03-16T03:49:54.589Z,18.81
2019-03-16T03:50:36.358Z,18.81
2019-03-16T03:51:16.965Z,18.82
2019-03-16T03:51:57.555Z,18.84
2019-03-16T03:52:38.137Z,18.82
2019-03-16T03:53:18.753Z,18.81
2019-03-16T03:53:59.351Z,18.84
2019-03-16T03:54:39.951Z,18.84
2019-03-16T03:55:20.547Z,18.8
2019-03-16T03:56:01.144Z,18.85
2019-03-16T03:56:41.725Z,18.81
2019-03-16T03:57:22.313Z,18.8
2019-03-16T03:58:02.901Z,18.8
2019-03-16T03:58:43.495Z,18.76
2019-03-16T03:59:24.112Z,18.78
2019-03-16T04:00:04.688Z,18.87
2019-03-16T04:00:45.273Z,18.75
2019-03-16T04:01:26.022Z,18.84
2019-03-16T04:02:06.611Z,18.8
2019-03-16T04:02:47.047Z,18.81
2019-03-16T04:03:27.644Z,18.81
2019-03-16T04:04:14.698Z,18.81
2019-03-16T04:04:48.860Z,18.85
2019-03-16T04:05:29.472Z,18.82
2019-03-16T04:06:10.061Z,18.8
2019-03-16T04:06:50.677Z,18.84
2019-03-16T04:07:31.267Z,18.84
2019-03-16T04:08:11.867Z,18.82
2019-03-16T04:08:52.466Z,18.78
2019-03-16T04:09:33.056Z,18.81
2019-03-16T04:10:13.658Z,18.82
2019-03-16T04:10:54.261Z,18.85
2019-03-16T04:11:34.859Z,18.82
2019-03-16T04:12:15.486Z,18.84
2019-03-16T04:12:56.084Z,18.78
2019-03-16T04:13:36.690Z,18.78
2019-03-16T04:14:17.277Z,18.78
2019-03-16T04:14:57.873Z,18.78
2019-03-16T04:15:38.494Z,18.81
2019-03-16T04:16:19.078Z,18.81
2019-03-16T04:16:59.671Z,18.82
2019-03-16T04:17:40.285Z,18.75
2019-03-16T04:18:20.869Z,18.82
2019-03-16T04:19:01.510Z,18.76
2019-03-16T04:19:42.115Z,18.87
2019-03-16T04:20:22.738Z,18.78
2019-03-16T04:21:03.308Z,18.85
2019-03-16T04:21:43.900Z,18.85
2019-03-16T04:22:24.498Z,18.81
2019-03-16T04:23:05.105Z,18.76
2019-03-16T04:23:45.687Z,18.75
2019-03-16T04:24:26.293Z,18.75
2019-03-16T04:25:06.881Z,18.81
2019-03-16T04:25:47.457Z,18.73
2019-03-16T04:26:28.044Z,18.75
2019-03-16T04:27:15.445Z,18.75
2019-03-16T04:27:49.225Z,18.87
2019-03-16T04:28:29.829Z,18.8
2019-03-16T04:29:10.405Z,18.78
2019-03-16T04:29:51.003Z,18.81
2019-03-16T04:30:31.625Z,18.84
2019-03-16T04:31:12.220Z,18.8
2019-03-16T04:31:52.800Z,18.81
2019-03-16T04:32:33.387Z,18.81
2019-03-16T04:33:13.977Z,18.78
2019-03-16T04:33:54.575Z,18.76
2019-03-16T04:34:35.173Z,18.82
2019-03-16T04:35:15.763Z,18.73
2019-03-16T04:35:56.353Z,18.84
2019-03-16T04:36:36.939Z,18.81
2019-03-16T04:37:17.536Z,18.76
2019-03-16T04:37:58.137Z,18.76
2019-03-16T04:38:38.719Z,18.84
2019-03-16T04:39:19.327Z,18.73
2019-03-16T04:39:59.958Z,18.8
2019-03-16T04:40:40.545Z,18.75
2019-03-16T04:41:21.149Z,18.78
2019-03-16T04:42:01.739Z,18.8
2019-03-16T04:42:42.344Z,18.78
2019-03-16T04:43:23.001Z,18.76
2019-03-16T04:44:03.597Z,18.73
2019-03-16T04:44:44.190Z,18.78
2019-03-16T04:45:24.788Z,18.76
2019-03-16T04:46:05.389Z,18.78
2019-03-16T04:46:45.980Z,18.78
2019-03-16T04:47:26.576Z,18.73
2019-03-16T04:48:07.189Z,18.78
2019-03-16T04:48:47.785Z,18.76
2019-03-16T04:49:28.394Z,18.76
2019-03-16T04:50:08.987Z,18.75
2019-03-16T04:50:49.578Z,18.75
2019-03-16T04:51:30.179Z,18.76
2019-03-16T04:52:10.769Z,18.76
2019-03-16T04:52:51.384Z,18.75
2019-03-16T04:53:32.025Z,18.78
2019-03-16T04:54:12.621Z,18.73
2019-03-16T04:54:53.215Z,18.81
2019-03-16T04:55:33.823Z,18.82
2019-03-16T04:56:14.417Z,18.73
2019-03-16T04:56:55.017Z,18.76
2019-03-16T04:57:35.639Z,18.76
2019-03-16T04:58:16.244Z,18.81
2019-03-16T04:58:56.850Z,18.76
2019-03-16T04:59:37.439Z,18.82
2019-03-16T05:00:18.047Z,18.76
2019-03-16T05:00:58.645Z,18.82
2019-03-16T05:01:39.241Z,18.84
2019-03-16T05:02:19.838Z,18.73
2019-03-16T05:03:00.423Z,18.75
2019-03-16T05:03:41.044Z,18.73
2019-03-16T05:04:21.642Z,18.82
2019-03-16T05:05:02.237Z,18.76
2019-03-16T05:05:42.840Z,18.8
2019-03-16T05:06:23.445Z,18.67
2019-03-16T05:07:04.055Z,18.73
2019-03-16T05:07:44.662Z,18.72
2019-03-16T05:08:25.271Z,18.73
2019-03-16T05:09:05.862Z,18.76
2019-03-16T05:09:46.461Z,18.69
2019-03-16T05:10:27.079Z,18.75
2019-03-16T05:11:07.678Z,18.72
2019-03-16T05:11:48.271Z,18.7
2019-03-16T05:12:28.901Z,18.67
2019-03-16T05:13:09.473Z,18.8
2019-03-16T05:13:50.084Z,18.75
2019-03-16T05:14:30.677Z,18.8
2019-03-16T05:15:11.285Z,18.76
2019-03-16T05:15:51.880Z,18.75
2019-03-16T05:16:32.473Z,18.65
2019-03-16T05:17:13.103Z,18.7
2019-03-16T05:17:53.691Z,18.75
2019-03-16T05:18:34.315Z,18.75
2019-03-16T05:19:14.904Z,18.67
2019-03-16T05:19:55.503Z,18.73
2019-03-16T05:20:36.105Z,18.69
2019-03-16T05:21:16.695Z,18.7
2019-03-16T05:21:57.303Z,18.7
2019-03-16T05:22:37.916Z,18.8
2019-03-16T05:23:18.498Z,18.69
2019-03-16T05:23:59.096Z,18.73
2019-03-16T05:24:39.707Z,18.67
2019-03-16T05:25:20.299Z,18.73
2019-03-16T05:26:00.881Z,18.75
2019-03-16T05:26:41.465Z,18.66
2019-03-16T05:27:22.650Z,18.75
2019-03-16T05:28:03.253Z,18.7
2019-03-16T05:28:43.844Z,18.81
2019-03-16T05:29:24.481Z,18.7
2019-03-16T05:30:05.061Z,18.8
2019-03-16T05:30:45.645Z,18.7
2019-03-16T05:31:26.249Z,18.72
2019-03-16T05:32:06.826Z,18.69
2019-03-16T05:32:47.413Z,18.67
2019-03-16T05:33:28.039Z,18.73
2019-03-16T05:34:08.629Z,18.63
2019-03-16T05:34:56.117Z,18.73
2019-03-16T05:35:29.855Z,18.73
2019-03-16T05:36:10.447Z,18.76
2019-03-16T05:36:51.035Z,18.7
2019-03-16T05:37:31.623Z,18.76
2019-03-16T05:38:12.216Z,18.76
2019-03-16T05:38:52.798Z,18.7
2019-03-16T05:39:33.383Z,18.76
2019-03-16T05:40:13.985Z,18.66
2019-03-16T05:40:54.593Z,18.63
2019-03-16T05:41:35.189Z,18.65
2019-03-16T05:42:15.801Z,18.7
2019-03-16T05:42:56.401Z,18.72
2019-03-16T05:43:36.995Z,18.75
2019-03-16T05:44:17.589Z,18.76
2019-03-16T05:44:58.241Z,18.75
2019-03-16T05:45:38.847Z,18.78
2019-03-16T05:46:19.471Z,18.72
2019-03-16T05:47:00.064Z,18.73
2019-03-16T05:47:40.675Z,18.73
2019-03-16T05:48:21.273Z,18.7
2019-03-16T05:49:01.895Z,18.63
2019-03-16T05:49:42.473Z,18.72
2019-03-16T05:50:23.055Z,18.72
2019-03-16T05:51:03.651Z,18.69
2019-03-16T05:51:44.259Z,18.72
2019-03-16T05:52:24.867Z,18.69
2019-03-16T05:53:05.453Z,18.76
2019-03-16T05:53:46.077Z,18.78
2019-03-16T05:54:26.667Z,18.76
2019-03-16T05:55:07.255Z,18.73
2019-03-16T05:55:47.845Z,18.76
2019-03-16T05:56:28.442Z,18.78
2019-03-16T05:57:09.033Z,18.73
2019-03-16T05:57:49.617Z,18.75
2019-03-16T05:58:30.252Z,18.66
2019-03-16T05:59:10.848Z,18.78
2019-03-16T05:59:51.475Z,18.62
2019-03-16T06:00:32.074Z,18.67
2019-03-16T06:01:12.659Z,18.72
2019-03-16T06:01:53.245Z,18.67
2019-03-16T06:02:33.845Z,18.69
2019-03-16T06:03:14.444Z,18.75
2019-03-16T06:03:55.027Z,18.72
2019-03-16T06:04:35.622Z,18.76
2019-03-16T06:05:16.217Z,18.7
2019-03-16T06:05:56.809Z,18.67
2019-03-16T06:06:37.421Z,18.63
2019-03-16T06:07:18.125Z,18.72
2019-03-16T06:07:58.718Z,18.82
2019-03-16T06:08:39.303Z,18.75
2019-03-16T06:09:19.901Z,18.66
2019-03-16T06:10:00.543Z,18.72
2019-03-16T06:10:41.089Z,18.8
2019-03-16T06:11:21.686Z,18.78
2019-03-16T06:12:02.277Z,18.78
2019-03-16T06:12:43.917Z,18.69
2019-03-16T06:13:23.469Z,18.7
2019-03-16T06:14:04.065Z,18.73
2019-03-16T06:14:44.713Z,18.76
2019-03-16T06:15:25.308Z,18.78
2019-03-16T06:16:05.903Z,18.72
2019-03-16T06:16:46.501Z,18.7
2019-03-16T06:17:27.087Z,18.75
2019-03-16T06:18:07.733Z,18.76
2019-03-16T06:18:48.318Z,18.76
2019-03-16T06:19:28.939Z,18.75
2019-03-16T06:20:09.515Z,18.73
2019-03-16T06:20:50.127Z,18.75
2019-03-16T06:21:30.731Z,18.7
2019-03-16T06:22:11.385Z,18.8
2019-03-16T06:22:51.978Z,18.73
2019-03-16T06:23:32.573Z,18.7
2019-03-16T06:24:13.165Z,18.73
2019-03-16T06:24:53.757Z,18.75
2019-03-16T06:25:34.366Z,18.76
2019-03-16T06:26:14.961Z,18.75
2019-03-16T06:26:55.551Z,18.73
2019-03-16T06:27:36.180Z,18.76
2019-03-16T06:28:16.780Z,18.78
2019-03-16T06:28:57.431Z,18.73
2019-03-16T06:29:38.042Z,18.76
2019-03-16T06:30:20.748Z,18.76
2019-03-16T06:30:59.266Z,18.76
2019-03-16T06:31:39.924Z,18.8
2019-03-16T06:32:20.459Z,18.73
2019-03-16T06:33:01.065Z,18.78
2019-03-16T06:33:41.663Z,18.73
2019-03-16T06:34:22.271Z,18.81
2019-03-16T06:35:02.887Z,18.76
2019-03-16T06:35:43.478Z,18.78
2019-03-16T06:36:24.081Z,18.76
2019-03-16T06:37:04.679Z,18.8
2019-03-16T06:37:45.271Z,18.8
2019-03-16T06:38:25.865Z,18.8
2019-03-16T06:39:06.466Z,18.75
2019-03-16T06:39:47.063Z,18.82
2019-03-16T06:40:27.659Z,18.78
2019-03-16T06:41:08.280Z,18.73
2019-03-16T06:41:48.857Z,18.81
2019-03-16T06:42:29.451Z,18.84
2019-03-16T06:43:10.069Z,18.78
2019-03-16T06:43:50.681Z,18.81
2019-03-16T06:44:31.286Z,18.82
2019-03-16T06:45:11.881Z,18.85
2019-03-16T06:45:52.500Z,18.75
2019-03-16T06:46:33.175Z,18.82
2019-03-16T06:47:13.680Z,18.75
2019-03-16T06:47:54.857Z,18.76
2019-03-16T06:48:34.859Z,18.78
2019-03-16T06:49:15.445Z,18.84
2019-03-16T06:49:56.029Z,18.76
2019-03-16T06:50:36.633Z,18.85
2019-03-16T06:51:17.259Z,18.75
2019-03-16T06:51:57.865Z,18.78
2019-03-16T06:52:38.459Z,18.84
2019-03-16T06:53:19.655Z,18.82
2019-03-16T06:53:59.653Z,18.82
2019-03-16T06:54:40.249Z,18.85
2019-03-16T06:55:20.840Z,18.78
2019-03-16T06:56:01.431Z,18.76
2019-03-16T06:56:42.033Z,18.76
2019-03-16T06:57:22.625Z,18.78
2019-03-16T06:58:03.292Z,18.81
2019-03-16T06:58:43.934Z,18.8
2019-03-16T06:59:24.523Z,18.81
2019-03-16T07:00:05.115Z,18.9
2019-03-16T07:00:45.712Z,18.85
2019-03-16T07:01:26.291Z,18.85
2019-03-16T07:02:06.879Z,18.9
2019-03-16T07:02:47.477Z,18.8
2019-03-16T07:03:28.117Z,18.88
2019-03-16T07:04:08.719Z,19.07
2019-03-16T07:04:49.381Z,19.22
2019-03-16T07:05:37.950Z,19.26
2019-03-16T07:06:10.563Z,19.39
2019-03-16T07:06:51.229Z,19.54
2019-03-16T07:07:31.829Z,19.68
2019-03-16T07:08:12.425Z,19.81
2019-03-16T07:08:53.079Z,19.91
2019-03-16T07:09:33.702Z,19.91
2019-03-16T07:10:14.300Z,20.02
2019-03-16T07:10:54.923Z,20.1
2019-03-16T07:11:35.503Z,20.16
2019-03-16T07:12:16.115Z,20.31
2019-03-16T07:12:56.719Z,20.33
2019-03-16T07:13:37.317Z,20.42
2019-03-16T07:14:17.949Z,20.58
2019-03-16T07:14:58.561Z,20.58
2019-03-16T07:15:39.198Z,20.66
2019-03-16T07:16:19.791Z,20.64
2019-03-16T07:17:02.201Z,20.55
2019-03-16T07:17:41.005Z,20.24
2019-03-16T07:18:21.650Z,20.14
2019-03-16T07:19:02.277Z,19.92
2019-03-16T07:19:42.890Z,19.81
2019-03-16T07:20:23.473Z,19.68
2019-03-16T07:21:04.096Z,19.84
2019-03-16T07:21:44.685Z,20.05
2019-03-16T07:22:25.309Z,20.42
2019-03-16T07:23:05.910Z,20.79
2019-03-16T07:23:46.549Z,20.95
2019-03-16T07:24:27.157Z,20.8
2019-03-16T07:25:07.769Z,20.59
2019-03-16T07:25:48.339Z,20.42
2019-03-16T07:26:28.957Z,20.16
2019-03-16T07:27:09.549Z,19.95
2019-03-16T07:27:50.152Z,19.86
2019-03-16T07:28:30.746Z,19.83
2019-03-16T07:29:11.344Z,19.66
2019-03-16T07:29:51.949Z,19.62
2019-03-16T07:30:32.568Z,19.62
2019-03-16T07:31:13.240Z,19.59
2019-03-16T07:31:53.825Z,19.56
2019-03-16T07:32:34.430Z,19.41
2019-03-16T07:33:15.095Z,19.44
2019-03-16T07:33:55.721Z,19.43
2019-03-16T07:34:36.344Z,19.43
2019-03-16T07:35:16.967Z,19.46
2019-03-16T07:35:57.587Z,19.41
2019-03-16T07:36:38.206Z,19.41
2019-03-16T07:37:18.795Z,19.39
2019-03-16T07:37:59.423Z,19.4
2019-03-16T07:38:40.031Z,19.37
2019-03-16T07:39:20.623Z,19.39
2019-03-16T07:40:01.255Z,19.37
2019-03-16T07:40:41.833Z,19.36
2019-03-16T07:41:22.440Z,19.39
2019-03-16T07:42:03.040Z,19.31
2019-03-16T07:42:43.627Z,19.36
2019-03-16T07:43:24.229Z,19.31
2019-03-16T07:44:04.820Z,19.25
2019-03-16T07:44:45.437Z,19.31
2019-03-16T07:45:26.039Z,19.29
2019-03-16T07:46:06.617Z,19.31
2019-03-16T07:46:47.209Z,19.29
2019-03-16T07:47:27.815Z,19.26
2019-03-16T07:48:08.424Z,19.26
2019-03-16T07:48:49.012Z,19.32
2019-03-16T07:49:29.613Z,19.25
2019-03-16T07:50:10.218Z,19.33
2019-03-16T07:50:50.829Z,19.31
2019-03-16T07:51:31.434Z,19.22
2019-03-16T07:52:12.069Z,19.29
2019-03-16T07:52:52.675Z,19.31
2019-03-16T07:53:33.915Z,19.25
2019-03-16T07:54:14.535Z,19.29
2019-03-16T07:54:55.183Z,19.29
2019-03-16T07:55:35.783Z,19.25
2019-03-16T07:56:16.398Z,19.29
2019-03-16T07:56:56.987Z,19.28
2019-03-16T07:57:40.294Z,19.19
2019-03-16T07:58:18.206Z,19.21
2019-03-16T07:58:58.799Z,19.25
2019-03-16T07:59:39.385Z,19.23
2019-03-16T08:00:20.004Z,19.25
2019-03-16T08:01:03.221Z,19.26
2019-03-16T08:01:41.199Z,19.22
2019-03-16T08:02:21.803Z,19.25
2019-03-16T08:03:02.401Z,19.23
2019-03-16T08:03:43.008Z,19.29
2019-03-16T08:04:23.605Z,19.28
2019-03-16T08:05:17.199Z,19.28
2019-03-16T08:05:44.919Z,19.22
2019-03-16T08:06:25.508Z,19.25
2019-03-16T08:07:06.102Z,19.29
2019-03-16T08:07:46.783Z,19.22
2019-03-16T08:08:27.374Z,19.21
2019-03-16T08:09:08.129Z,19.29
2019-03-16T08:09:48.577Z,19.21
2019-03-16T08:10:29.232Z,19.18
2019-03-16T08:11:09.837Z,19.19
2019-03-16T08:11:50.408Z,19.19
2019-03-16T08:12:32.479Z,19.25
2019-03-16T08:13:11.736Z,19.16
2019-03-16T08:13:52.386Z,19.18
2019-03-16T08:14:33.003Z,19.19
2019-03-16T08:15:13.779Z,19.22
2019-03-16T08:15:54.375Z,19.22
2019-03-16T08:16:34.979Z,19.16
2019-03-16T08:17:15.573Z,19.19
2019-03-16T08:17:56.184Z,19.14
2019-03-16T08:18:36.759Z,19.18
2019-03-16T08:19:17.349Z,19.19
2019-03-16T08:19:57.940Z,19.25
2019-03-16T08:20:38.535Z,19.16
2019-03-16T08:21:19.119Z,19.21
2019-03-16T08:21:59.717Z,19.18
2019-03-16T08:22:40.346Z,19.23
2019-03-16T08:23:20.938Z,19.18
2019-03-16T08:24:01.549Z,19.19
2019-03-16T08:24:42.134Z,19.21
2019-03-16T08:25:22.731Z,19.13
2019-03-16T08:26:03.328Z,19.22
2019-03-16T08:26:43.972Z,19.21
2019-03-16T08:27:24.576Z,19.16
2019-03-16T08:28:05.191Z,19.21
2019-03-16T08:28:45.816Z,19.23
2019-03-16T08:29:26.607Z,19.21
2019-03-16T08:30:07.198Z,19.14
2019-03-16T08:30:47.789Z,19.13
2019-03-16T08:31:28.375Z,19.16
2019-03-16T08:32:08.972Z,19.14
2019-03-16T08:32:49.584Z,19.25
2019-03-16T08:33:30.201Z,19.21
2019-03-16T08:34:10.808Z,19.25
2019-03-16T08:34:51.445Z,19.18
2019-03-16T08:35:32.042Z,19.25
2019-03-16T08:36:12.645Z,19.14
2019-03-16T08:36:53.242Z,19.25
2019-03-16T08:37:33.834Z,19.16
2019-03-16T08:38:14.445Z,19.16
2019-03-16T08:38:55.036Z,19.21
2019-03-16T08:39:35.662Z,19.19
2019-03-16T08:40:16.252Z,19.13
2019-03-16T08:40:56.862Z,19.26
